Moose 62 — CGCZ — position and weather

sailwx.info

Track history (hours):
 
Tides and Currents Weather Stations Pressure Air Temp Water Temp Dewpoint Dewpoint Depression Visibility Wind Speed Wind Dir Waves Ship Positions

Moose 62

Last reported at 2014-Nov-23 18:33 UTC. Time now 2014-Nov-23 18:44 UTC.
Position N 49°17' W 123°06'.

Length 33 m; draft 2.6 m.

Type: Military. MMSI: 316013412.

Date/timePositionNaut miles runAvg speedWind from/ knotsBaromVisibWave heightAir tempDewpointWater temp
2014-Nov-23 18:33N 49°17' W 123°06'0 0.0
2014-Nov-23 17:33N 49°17' W 123°06'0 0.0
2014-Nov-23 16:31N 49°17' W 123°06'0 0.0
2014-Nov-23 15:31N 49°17' W 123°06'0 0.0
2014-Nov-23 14:31N 49°17' W 123°06'0 0.0
2014-Nov-23 13:31N 49°17' W 123°06'0 0.0
2014-Nov-23 12:33N 49°17' W 123°06'0 0.0
2014-Nov-23 11:33N 49°17' W 123°06'0 0.0
2014-Nov-23 10:33N 49°17' W 123°06'0 0.0
2014-Nov-23 09:31N 49°17' W 123°06'0 0.0
2014-Nov-23 08:31N 49°17' W 123°06'0 0.0
2014-Nov-23 07:33N 49°17' W 123°06'0 0.0
2014-Nov-23 06:33N 49°17' W 123°06'0 0.0
2014-Nov-23 05:34N 49°17' W 123°06'0 0.0
2014-Nov-23 04:32N 49°17' W 123°06'0 0.0
2014-Nov-23 03:32N 49°17' W 123°06'0 0.0
2014-Nov-23 02:31N 49°17' W 123°06'0 0.0
2014-Nov-23 01:31N 49°17' W 123°06'0 0.0
2014-Nov-23 00:31N 49°17' W 123°06'0 0.0
2014-Nov-22 23:31N 49°17' W 123°06'0 0.0
2014-Nov-22 22:34N 49°17' W 123°06'0 0.0
2014-Nov-22 21:32N 49°17' W 123°06'0 0.0
2014-Nov-22 20:31N 49°17' W 123°06'0 0.0
2014-Nov-22 19:31N 49°17' W 123°06'0 0.0
2014-Nov-22 18:31N 49°17' W 123°06'0 0.0
2014-Nov-22 17:31N 49°17' W 123°06'0 0.0
2014-Nov-22 16:31N 49°17' W 123°06'0 0.0
2014-Nov-22 15:31N 49°17' W 123°06'0 0.0
2014-Nov-22 14:33N 49°17' W 123°06'0 0.0
2014-Nov-22 13:32N 49°17' W 123°06'0 0.0
2014-Nov-22 12:32N 49°17' W 123°06'0 0.0
2014-Nov-22 11:32N 49°17' W 123°06'0 0.0
2014-Nov-22 10:32N 49°17' W 123°06'0 0.0
2014-Nov-22 09:32N 49°17' W 123°06'0 0.0
2014-Nov-22 08:32N 49°17' W 123°06'0 0.0
2014-Nov-22 07:33N 49°17' W 123°06'0 0.0
2014-Nov-22 06:33N 49°17' W 123°06'0 0.0
2014-Nov-22 05:33N 49°17' W 123°06'0 0.0
2014-Nov-22 04:32N 49°17' W 123°06'0 0.0
2014-Nov-22 03:32N 49°17' W 123°06'0 0.0
2014-Nov-22 02:31N 49°17' W 123°06'0 0.0
2014-Nov-22 01:31N 49°17' W 123°06'0 0.0
2014-Nov-22 00:34N 49°17' W 123°06'0 0.0
2014-Nov-21 23:33N 49°17' W 123°06'0 0.0
2014-Nov-21 22:33N 49°17' W 123°06'0 0.0
2014-Nov-21 21:33N 49°17' W 123°06'0 0.0
2014-Nov-21 20:33N 49°17' W 123°06'1 1.5
2014-Nov-21 19:33N 49°18' W 123°07'8 8.3
2014-Nov-21 18:33N 49°24' W 123°17'3 3.3
2014-Nov-21 17:33N 49°27' W 123°17'6 6.0
2014-Nov-21 16:33N 49°25' W 123°25'3 1.4
2014-Nov-21 14:16N 49°24' W 123°30'0 0.0
2014-Nov-21 13:10N 49°24' W 123°30'0 0.0
2014-Nov-21 12:16N 49°24' W 123°30'0 0.0
2014-Nov-21 11:28N 49°24' W 123°30'0 0.0
2014-Nov-21 10:22N 49°24' W 123°30'0 0.0
2014-Nov-21 08:22N 49°24' W 123°30'0 0.0
2014-Nov-21 07:10N 49°24' W 123°30'0 0.0
2014-Nov-21 05:22N 49°24' W 123°30'0 0.0
2014-Nov-21 03:23N 49°24' W 123°30'0 0.0
2014-Nov-21 02:23N 49°24' W 123°30'0 0.0
2014-Nov-21 01:29N 49°24' W 123°30'1 1.0
2014-Nov-21 00:33N 49°25' W 123°29'9 9.1
2014-Nov-20 23:33N 49°27' W 123°16'0 0.1
2014-Nov-20 22:33N 49°27' W 123°16'6 5.7
2014-Nov-20 21:33N 49°21' W 123°18'8 7.9
2014-Nov-20 20:33N 49°18' W 123°07'0 0.1
2014-Nov-20 19:31N 49°18' W 123°07'0 0.0
2014-Nov-20 18:31N 49°18' W 123°07'0 0.0
2014-Nov-20 17:31N 49°18' W 123°07'0 0.0
2014-Nov-20 16:33N 49°18' W 123°07'6 5.8
2014-Nov-20 15:33N 49°18' W 123°16'1212.0
2014-Nov-20 14:33N 49°20' W 123°34'1211.8
2014-Nov-20 13:33N 49°24' W 123°51'1110.2
2014-Nov-20 12:32N 49°30' W 124°05'1210.8
2014-Nov-20 11:28N 49°39' W 124°15'18 9.3
2014-Nov-20 09:33N 49°44' W 124°41'1212.2
2014-Nov-20 08:33N 49°35' W 124°30'1010.3
2014-Nov-20 07:32N 49°26' W 124°20'1211.9
2014-Nov-20 06:33N 49°21' W 124°04'1110.7
2014-Nov-20 05:32N 49°12' W 123°54'2 1.7
2014-Nov-20 04:18N 49°10' W 123°56'0 0.0
2014-Nov-20 03:30N 49°10' W 123°56'0 0.0
2014-Nov-20 02:30N 49°10' W 123°56'0 0.0
2014-Nov-20 01:29N 49°10' W 123°56'0 0.5
2014-Nov-20 00:33N 49°10' W 123°55'7 6.6
2014-Nov-19 23:33N 49°13' W 123°47'10 9.7
2014-Nov-19 22:33N 49°08' W 123°34'10 9.8
2014-Nov-19 21:33N 49°00' W 123°25'7 7.2
2014-Nov-19 20:33N 48°54' W 123°18'10 9.6
2014-Nov-19 19:33N 48°45' W 123°18'1818.1
2014-Nov-19 18:34N 48°28' W 123°10'1212.1
2014-Nov-19 17:34N 48°24' W 123°27'2 1.8
2014-Nov-19 16:18N 48°26' W 123°26'7 9.0
2014-Nov-19 15:33N 48°21' W 123°20'5 5.1
2014-Nov-19 14:34N 48°22' W 123°12'6 5.7
2014-Nov-19 13:33N 48°28' W 123°12'1211.5
2014-Nov-19 12:33N 48°39' W 123°15'1010.1
2014-Nov-19 11:33N 48°46' W 123°04'9 9.2
2014-Nov-19 10:33N 48°54' W 123°11'1211.9
2014-Nov-19 09:33N 48°60' W 123°27'8 8.5
2014-Nov-19 08:33N 49°06' W 123°35'6 6.1
2014-Nov-19 07:34N 49°07' W 123°25'1010.0
2014-Nov-19 06:33N 49°00' W 123°14'1211.6
2014-Nov-19 05:33N 48°52' W 123°01'8 8.1
2014-Nov-19 04:33N 48°45' W 123°07'5 4.0
2014-Nov-19 03:14N 48°47' W 123°14'0 0.0
2014-Nov-19 02:31N 48°47' W 123°14'4 3.7
2014-Nov-19 01:24N 48°50' W 123°19'1315.7
2014-Nov-19 00:33N 48°57' W 123°36'10 9.6
2014-Nov-18 23:33N 48°47' W 123°33'8 8.2
2014-Nov-18 22:33N 48°43' W 123°23'9 8.9
2014-Nov-18 21:34N 48°35' W 123°18'4 4.0
2014-Nov-18 20:28N 48°31' W 123°20'3 3.7
2014-Nov-18 19:33N 48°29' W 123°15'9 8.8
2014-Nov-18 18:32N 48°24' W 123°28'2 1.9
2014-Nov-18 17:33N 48°26' W 123°26'0 0.0
2014-Nov-17 21:32N 48°26' W 123°26'0 0.0
2014-Nov-17 20:22N 48°26' W 123°26'0 0.0
2014-Nov-17 19:30N 48°26' W 123°26'0 0.0
2014-Nov-17 18:30N 48°26' W 123°26'0 0.0
2014-Nov-17 16:21N 48°26' W 123°26'0 0.0
2014-Nov-17 15:27N 48°26' W 123°26'0 0.0
2014-Nov-17 14:33N 48°26' W 123°26'0 0.0
2014-Nov-17 13:24N 48°26' W 123°26'0 0.0
2014-Nov-17 12:27N 48°26' W 123°26'0 0.0
2014-Nov-17 11:33N 48°26' W 123°26'0 0.0
2014-Nov-17 10:14N 48°26' W 123°26'0 0.0
2014-Nov-17 09:21N 48°26' W 123°26'0 0.0
2014-Nov-17 08:26N 48°26' W 123°26'0 0.0
2014-Nov-17 07:29N 48°26' W 123°26'0 0.0
2014-Nov-17 06:29N 48°26' W 123°26'0 0.0
2014-Nov-17 05:32N 48°26' W 123°26'0 0.0
2014-Nov-17 04:31N 48°26' W 123°26'0 0.0
2014-Nov-17 03:31N 48°26' W 123°26'0 0.0
2014-Nov-17 02:33N 48°26' W 123°26'0 0.0
2014-Nov-17 01:33N 48°26' W 123°26'0 0.0
2014-Nov-17 00:33N 48°26' W 123°26'0 0.0
2014-Nov-16 23:29N 48°26' W 123°26'0 0.0
2014-Nov-16 22:26N 48°26' W 123°26'1 1.3
2014-Nov-16 21:33N 48°25' W 123°27'0 0.3
2014-Nov-16 20:33N 48°25' W 123°27'5 4.9
2014-Nov-16 19:33N 48°21' W 123°32'2 1.8
2014-Nov-16 18:32N 48°21' W 123°29'6 5.8
2014-Nov-16 17:33N 48°26' W 123°27'0 0.3
2014-Nov-16 16:28N 48°26' W 123°26'0 0.0
2014-Nov-16 15:28N 48°26' W 123°26'0 0.0
2014-Nov-16 14:28N 48°26' W 123°26'0 0.0
2014-Nov-16 13:22N 48°26' W 123°26'0 0.0
2014-Nov-16 12:30N 48°26' W 123°26'0 0.0
2014-Nov-16 11:18N 48°26' W 123°26'0 0.0
2014-Nov-16 10:30N 48°26' W 123°26'0 0.0
2014-Nov-16 09:30N 48°26' W 123°26'0 0.0
2014-Nov-16 08:31N 48°26' W 123°26'0 0.0
2014-Nov-16 07:21N 48°26' W 123°26'0 0.0
2014-Nov-16 06:33N 48°26' W 123°26'0 0.0
2014-Nov-16 05:33N 48°26' W 123°26'0 0.0
2014-Nov-16 04:22N 48°26' W 123°26'0 0.0
2014-Nov-16 03:21N 48°26' W 123°26'0 0.0
2014-Nov-16 02:27N 48°26' W 123°26'0 0.0
2014-Nov-16 01:32N 48°26' W 123°26'2 2.0
2014-Nov-16 00:33N 48°24' W 123°26'1313.2
2014-Nov-15 23:33N 48°34' W 123°14'1815.8
2014-Nov-15 22:24N 48°51' W 123°24'3 3.4
2014-Nov-15 21:32N 48°54' W 123°25'1 0.5
2014-Nov-15 19:30N 48°53' W 123°24'6 6.4
2014-Nov-15 18:30N 48°48' W 123°20'5 4.8
2014-Nov-15 17:33N 48°44' W 123°24'5 5.3
2014-Nov-15 16:33N 48°39' W 123°29'1 1.0
2014-Nov-15 15:31N 48°39' W 123°27'0 0.0
2014-Nov-15 14:19N 48°39' W 123°27'0 0.0
2014-Nov-15 13:25N 48°39' W 123°27'0 0.0
2014-Nov-15 12:19N 48°39' W 123°27'0 0.0
2014-Nov-15 11:19N 48°39' W 123°27'0 0.0
2014-Nov-15 10:31N 48°39' W 123°27'0 0.0
2014-Nov-15 09:18N 48°39' W 123°27'0 0.0
2014-Nov-15 08:17N 48°39' W 123°27'0 0.0
2014-Nov-15 07:29N 48°39' W 123°27'0 0.0
2014-Nov-15 06:11N 48°39' W 123°27'0 0.0
2014-Nov-15 05:29N 48°39' W 123°27'0 0.0
2014-Nov-15 04:29N 48°39' W 123°27'0 0.0
2014-Nov-15 03:29N 48°39' W 123°27'0 0.0
2014-Nov-15 02:29N 48°39' W 123°27'0 0.0
2014-Nov-15 01:33N 48°39' W 123°27'4 4.1
2014-Nov-15 00:33N 48°43' W 123°24'1313.1
2014-Nov-14 23:33N 48°32' W 123°12'1312.7
2014-Nov-14 22:33N 48°22' W 123°24'4 3.9
2014-Nov-14 21:29N 48°26' W 123°26'0 0.0
2014-Nov-14 20:33N 48°26' W 123°26'1 0.8
2014-Nov-14 19:33N 48°26' W 123°27'0 0.0
2014-Nov-14 18:33N 48°26' W 123°27'1 1.1
2014-Nov-14 17:33N 48°25' W 123°27'10 9.7
2014-Nov-14 16:34N 48°28' W 123°13'2019.5
2014-Nov-14 15:34N 48°47' W 123°21'7 6.5
2014-Nov-14 14:26N 48°51' W 123°30'0 0.0
2014-Nov-14 12:32N 48°51' W 123°30'0 0.0
2014-Nov-14 11:33N 48°51' W 123°30'0 0.0
2014-Nov-14 10:32N 48°51' W 123°30'0 0.0
2014-Nov-14 09:33N 48°51' W 123°30'0 0.0
2014-Nov-14 08:33N 48°51' W 123°30'0 0.0
2014-Nov-14 07:33N 48°51' W 123°30'0 0.0
2014-Nov-14 06:33N 48°51' W 123°30'0 0.0
2014-Nov-14 05:33N 48°51' W 123°30'0 0.0
2014-Nov-14 04:33N 48°51' W 123°30'0 0.0
2014-Nov-14 03:33N 48°51' W 123°30'0 0.0
2014-Nov-14 02:32N 48°51' W 123°30'0 0.0
2014-Nov-14 01:33N 48°51' W 123°30'0 0.0
2014-Nov-14 00:32N 48°51' W 123°30'0 0.0
2014-Nov-13 23:31N 48°51' W 123°30'0 0.0
2014-Nov-13 22:17N 48°51' W 123°30'2 2.8
2014-Nov-13 21:32N 48°50' W 123°27'9 8.6
2014-Nov-13 20:32N 48°42' W 123°22'1111.2
2014-Nov-13 19:33N 48°53' W 123°27'8 8.5
2014-Nov-13 18:33N 48°46' W 123°19'  
Track history (hours):
 
Tides and Currents Weather Stations Pressure Air Temp Water Temp Dewpoint Dewpoint Depression Visibility Wind Speed Wind Dir Waves Ship Positions

Moose 62

Last reported at 2014-Nov-23 18:33 UTC. Time now 2014-Nov-23 18:44 UTC.
Position N 49°17' W 123°06'.

Length 33 m; draft 2.6 m.

Type: Military. MMSI: 316013412.

Date/timePositionNaut miles runAvg speedWind from/ knotsBaromVisibWave heightAir tempDewpointWater temp
2014-Nov-23 18:33N 49°17' W 123°06'0 0.0
2014-Nov-23 17:33N 49°17' W 123°06'0 0.0
2014-Nov-23 16:31N 49°17' W 123°06'0 0.0
2014-Nov-23 15:31N 49°17' W 123°06'0 0.0
2014-Nov-23 14:31N 49°17' W 123°06'0 0.0
2014-Nov-23 13:31N 49°17' W 123°06'0 0.0
2014-Nov-23 12:33N 49°17' W 123°06'0 0.0
2014-Nov-23 11:33N 49°17' W 123°06'0 0.0
2014-Nov-23 10:33N 49°17' W 123°06'0 0.0
2014-Nov-23 09:31N 49°17' W 123°06'0 0.0
2014-Nov-23 08:31N 49°17' W 123°06'0 0.0
2014-Nov-23 07:33N 49°17' W 123°06'0 0.0
2014-Nov-23 06:33N 49°17' W 123°06'0 0.0
2014-Nov-23 05:34N 49°17' W 123°06'0 0.0
2014-Nov-23 04:32N 49°17' W 123°06'0 0.0
2014-Nov-23 03:32N 49°17' W 123°06'0 0.0
2014-Nov-23 02:31N 49°17' W 123°06'0 0.0
2014-Nov-23 01:31N 49°17' W 123°06'0 0.0
2014-Nov-23 00:31N 49°17' W 123°06'0 0.0
2014-Nov-22 23:31N 49°17' W 123°06'0 0.0
2014-Nov-22 22:34N 49°17' W 123°06'0 0.0
2014-Nov-22 21:32N 49°17' W 123°06'0 0.0
2014-Nov-22 20:31N 49°17' W 123°06'0 0.0
2014-Nov-22 19:31N 49°17' W 123°06'0 0.0
2014-Nov-22 18:31N 49°17' W 123°06'0 0.0
2014-Nov-22 17:31N 49°17' W 123°06'0 0.0
2014-Nov-22 16:31N 49°17' W 123°06'0 0.0
2014-Nov-22 15:31N 49°17' W 123°06'0 0.0
2014-Nov-22 14:33N 49°17' W 123°06'0 0.0
2014-Nov-22 13:32N 49°17' W 123°06'0 0.0
2014-Nov-22 12:32N 49°17' W 123°06'0 0.0
2014-Nov-22 11:32N 49°17' W 123°06'0 0.0
2014-Nov-22 10:32N 49°17' W 123°06'0 0.0
2014-Nov-22 09:32N 49°17' W 123°06'0 0.0
2014-Nov-22 08:32N 49°17' W 123°06'0 0.0
2014-Nov-22 07:33N 49°17' W 123°06'0 0.0
2014-Nov-22 06:33N 49°17' W 123°06'0 0.0
2014-Nov-22 05:33N 49°17' W 123°06'0 0.0
2014-Nov-22 04:32N 49°17' W 123°06'0 0.0
2014-Nov-22 03:32N 49°17' W 123°06'0 0.0
2014-Nov-22 02:31N 49°17' W 123°06'0 0.0
2014-Nov-22 01:31N 49°17' W 123°06'0 0.0
2014-Nov-22 00:34N 49°17' W 123°06'0 0.0
2014-Nov-21 23:33N 49°17' W 123°06'0 0.0
2014-Nov-21 22:33N 49°17' W 123°06'0 0.0
2014-Nov-21 21:33N 49°17' W 123°06'0 0.0
2014-Nov-21 20:33N 49°17' W 123°06'1 1.5
2014-Nov-21 19:33N 49°18' W 123°07'8 8.3
2014-Nov-21 18:33N 49°24' W 123°17'3 3.3
2014-Nov-21 17:33N 49°27' W 123°17'6 6.0
2014-Nov-21 16:33N 49°25' W 123°25'3 1.4
2014-Nov-21 14:16N 49°24' W 123°30'0 0.0
2014-Nov-21 13:10N 49°24' W 123°30'0 0.0
2014-Nov-21 12:16N 49°24' W 123°30'0 0.0
2014-Nov-21 11:28N 49°24' W 123°30'0 0.0
2014-Nov-21 10:22N 49°24' W 123°30'0 0.0
2014-Nov-21 08:22N 49°24' W 123°30'0 0.0
2014-Nov-21 07:10N 49°24' W 123°30'0 0.0
2014-Nov-21 05:22N 49°24' W 123°30'0 0.0
2014-Nov-21 03:23N 49°24' W 123°30'0 0.0
2014-Nov-21 02:23N 49°24' W 123°30'0 0.0
2014-Nov-21 01:29N 49°24' W 123°30'1 1.0
2014-Nov-21 00:33N 49°25' W 123°29'9 9.1
2014-Nov-20 23:33N 49°27' W 123°16'0 0.1
2014-Nov-20 22:33N 49°27' W 123°16'6 5.7
2014-Nov-20 21:33N 49°21' W 123°18'8 7.9
2014-Nov-20 20:33N 49°18' W 123°07'0 0.1
2014-Nov-20 19:31N 49°18' W 123°07'0 0.0
2014-Nov-20 18:31N 49°18' W 123°07'0 0.0
2014-Nov-20 17:31N 49°18' W 123°07'0 0.0
2014-Nov-20 16:33N 49°18' W 123°07'6 5.8
2014-Nov-20 15:33N 49°18' W 123°16'1212.0
2014-Nov-20 14:33N 49°20' W 123°34'1211.8
2014-Nov-20 13:33N 49°24' W 123°51'1110.2
2014-Nov-20 12:32N 49°30' W 124°05'1210.8
2014-Nov-20 11:28N 49°39' W 124°15'18 9.3
2014-Nov-20 09:33N 49°44' W 124°41'1212.2
2014-Nov-20 08:33N 49°35' W 124°30'1010.3
2014-Nov-20 07:32N 49°26' W 124°20'1211.9
2014-Nov-20 06:33N 49°21' W 124°04'1110.7
2014-Nov-20 05:32N 49°12' W 123°54'2 1.7
2014-Nov-20 04:18N 49°10' W 123°56'0 0.0
2014-Nov-20 03:30N 49°10' W 123°56'0 0.0
2014-Nov-20 02:30N 49°10' W 123°56'0 0.0
2014-Nov-20 01:29N 49°10' W 123°56'0 0.5
2014-Nov-20 00:33N 49°10' W 123°55'7 6.6
2014-Nov-19 23:33N 49°13' W 123°47'10 9.7
2014-Nov-19 22:33N 49°08' W 123°34'10 9.8
2014-Nov-19 21:33N 49°00' W 123°25'7 7.2
2014-Nov-19 20:33N 48°54' W 123°18'10 9.6
2014-Nov-19 19:33N 48°45' W 123°18'1818.1
2014-Nov-19 18:34N 48°28' W 123°10'1212.1
2014-Nov-19 17:34N 48°24' W 123°27'2 1.8
2014-Nov-19 16:18N 48°26' W 123°26'7 9.0
2014-Nov-19 15:33N 48°21' W 123°20'5 5.1
2014-Nov-19 14:34N 48°22' W 123°12'6 5.7
2014-Nov-19 13:33N 48°28' W 123°12'1211.5
2014-Nov-19 12:33N 48°39' W 123°15'1010.1
2014-Nov-19 11:33N 48°46' W 123°04'9 9.2
2014-Nov-19 10:33N 48°54' W 123°11'1211.9
2014-Nov-19 09:33N 48°60' W 123°27'8 8.5
2014-Nov-19 08:33N 49°06' W 123°35'6 6.1
2014-Nov-19 07:34N 49°07' W 123°25'1010.0
2014-Nov-19 06:33N 49°00' W 123°14'1211.6
2014-Nov-19 05:33N 48°52' W 123°01'8 8.1
2014-Nov-19 04:33N 48°45' W 123°07'5 4.0
2014-Nov-19 03:14N 48°47' W 123°14'0 0.0
2014-Nov-19 02:31N 48°47' W 123°14'4 3.7
2014-Nov-19 01:24N 48°50' W 123°19'1315.7
2014-Nov-19 00:33N 48°57' W 123°36'10 9.6
2014-Nov-18 23:33N 48°47' W 123°33'8 8.2
2014-Nov-18 22:33N 48°43' W 123°23'9 8.9
2014-Nov-18 21:34N 48°35' W 123°18'4 4.0
2014-Nov-18 20:28N 48°31' W 123°20'3 3.7
2014-Nov-18 19:33N 48°29' W 123°15'9 8.8
2014-Nov-18 18:32N 48°24' W 123°28'2 1.9
2014-Nov-18 17:33N 48°26' W 123°26'0 0.0
2014-Nov-17 21:32N 48°26' W 123°26'0 0.0
2014-Nov-17 20:22N 48°26' W 123°26'0 0.0
2014-Nov-17 19:30N 48°26' W 123°26'0 0.0
2014-Nov-17 18:30N 48°26' W 123°26'0 0.0
2014-Nov-17 16:21N 48°26' W 123°26'0 0.0
2014-Nov-17 15:27N 48°26' W 123°26'0 0.0
2014-Nov-17 14:33N 48°26' W 123°26'0 0.0
2014-Nov-17 13:24N 48°26' W 123°26'0 0.0
2014-Nov-17 12:27N 48°26' W 123°26'0 0.0
2014-Nov-17 11:33N 48°26' W 123°26'0 0.0
2014-Nov-17 10:14N 48°26' W 123°26'0 0.0
2014-Nov-17 09:21N 48°26' W 123°26'0 0.0
2014-Nov-17 08:26N 48°26' W 123°26'0 0.0
2014-Nov-17 07:29N 48°26' W 123°26'0 0.0
2014-Nov-17 06:29N 48°26' W 123°26'0 0.0
2014-Nov-17 05:32N 48°26' W 123°26'0 0.0
2014-Nov-17 04:31N 48°26' W 123°26'0 0.0
2014-Nov-17 03:31N 48°26' W 123°26'0 0.0
2014-Nov-17 02:33N 48°26' W 123°26'0 0.0
2014-Nov-17 01:33N 48°26' W 123°26'0 0.0
2014-Nov-17 00:33N 48°26' W 123°26'0 0.0
2014-Nov-16 23:29N 48°26' W 123°26'0 0.0
2014-Nov-16 22:26N 48°26' W 123°26'1 1.3
2014-Nov-16 21:33N 48°25' W 123°27'0 0.3
2014-Nov-16 20:33N 48°25' W 123°27'5 4.9
2014-Nov-16 19:33N 48°21' W 123°32'2 1.8
2014-Nov-16 18:32N 48°21' W 123°29'6 5.8
2014-Nov-16 17:33N 48°26' W 123°27'0 0.3
2014-Nov-16 16:28N 48°26' W 123°26'0 0.0
2014-Nov-16 15:28N 48°26' W 123°26'0 0.0
2014-Nov-16 14:28N 48°26' W 123°26'0 0.0
2014-Nov-16 13:22N 48°26' W 123°26'0 0.0
2014-Nov-16 12:30N 48°26' W 123°26'0 0.0
2014-Nov-16 11:18N 48°26' W 123°26'0 0.0
2014-Nov-16 10:30N 48°26' W 123°26'0 0.0
2014-Nov-16 09:30N 48°26' W 123°26'0 0.0
2014-Nov-16 08:31N 48°26' W 123°26'0 0.0
2014-Nov-16 07:21N 48°26' W 123°26'0 0.0
2014-Nov-16 06:33N 48°26' W 123°26'0 0.0
2014-Nov-16 05:33N 48°26' W 123°26'0 0.0
2014-Nov-16 04:22N 48°26' W 123°26'0 0.0
2014-Nov-16 03:21N 48°26' W 123°26'0 0.0
2014-Nov-16 02:27N 48°26' W 123°26'0 0.0
2014-Nov-16 01:32N 48°26' W 123°26'2 2.0
2014-Nov-16 00:33N 48°24' W 123°26'1313.2
2014-Nov-15 23:33N 48°34' W 123°14'1815.8
2014-Nov-15 22:24N 48°51' W 123°24'3 3.4
2014-Nov-15 21:32N 48°54' W 123°25'1 0.5
2014-Nov-15 19:30N 48°53' W 123°24'6 6.4
2014-Nov-15 18:30N 48°48' W 123°20'5 4.8
2014-Nov-15 17:33N 48°44' W 123°24'5 5.3
2014-Nov-15 16:33N 48°39' W 123°29'1 1.0
2014-Nov-15 15:31N 48°39' W 123°27'0 0.0
2014-Nov-15 14:19N 48°39' W 123°27'0 0.0
2014-Nov-15 13:25N 48°39' W 123°27'0 0.0
2014-Nov-15 12:19N 48°39' W 123°27'0 0.0
2014-Nov-15 11:19N 48°39' W 123°27'0 0.0
2014-Nov-15 10:31N 48°39' W 123°27'0 0.0
2014-Nov-15 09:18N 48°39' W 123°27'0 0.0
2014-Nov-15 08:17N 48°39' W 123°27'0 0.0
2014-Nov-15 07:29N 48°39' W 123°27'0 0.0
2014-Nov-15 06:11N 48°39' W 123°27'0 0.0
2014-Nov-15 05:29N 48°39' W 123°27'0 0.0
2014-Nov-15 04:29N 48°39' W 123°27'0 0.0
2014-Nov-15 03:29N 48°39' W 123°27'0 0.0
2014-Nov-15 02:29N 48°39' W 123°27'0 0.0
2014-Nov-15 01:33N 48°39' W 123°27'4 4.1
2014-Nov-15 00:33N 48°43' W 123°24'1313.1
2014-Nov-14 23:33N 48°32' W 123°12'1312.7
2014-Nov-14 22:33N 48°22' W 123°24'4 3.9
2014-Nov-14 21:29N 48°26' W 123°26'0 0.0
2014-Nov-14 20:33N 48°26' W 123°26'1 0.8
2014-Nov-14 19:33N 48°26' W 123°27'0 0.0
2014-Nov-14 18:33N 48°26' W 123°27'1 1.1
2014-Nov-14 17:33N 48°25' W 123°27'10 9.7
2014-Nov-14 16:34N 48°28' W 123°13'2019.5
2014-Nov-14 15:34N 48°47' W 123°21'7 6.5
2014-Nov-14 14:26N 48°51' W 123°30'0 0.0
2014-Nov-14 12:32N 48°51' W 123°30'0 0.0
2014-Nov-14 11:33N 48°51' W 123°30'0 0.0
2014-Nov-14 10:32N 48°51' W 123°30'0 0.0
2014-Nov-14 09:33N 48°51' W 123°30'0 0.0
2014-Nov-14 08:33N 48°51' W 123°30'0 0.0
2014-Nov-14 07:33N 48°51' W 123°30'0 0.0
2014-Nov-14 06:33N 48°51' W 123°30'0 0.0
2014-Nov-14 05:33N 48°51' W 123°30'0 0.0
2014-Nov-14 04:33N 48°51' W 123°30'0 0.0
2014-Nov-14 03:33N 48°51' W 123°30'0 0.0
2014-Nov-14 02:32N 48°51' W 123°30'0 0.0
2014-Nov-14 01:33N 48°51' W 123°30'0 0.0
2014-Nov-14 00:32N 48°51' W 123°30'0 0.0
2014-Nov-13 23:31N 48°51' W 123°30'0 0.0
2014-Nov-13 22:17N 48°51' W 123°30'2 2.8
2014-Nov-13 21:32N 48°50' W 123°27'9 8.6
2014-Nov-13 20:32N 48°42' W 123°22'1111.2
2014-Nov-13 19:33N 48°53' W 123°27'8 8.5
2014-Nov-13 18:33N 48°46' W 123°19'  

Dump ship's entire track history